sensor_id;sensor_type;location;lat;lon;timestamp;pressure;altitude;pressure_sealevel;temperature;humidity
25658;BME280;13517;59.320;18.042;2022-08-03T00:01:44;100893.97;;;16.33;100.00
25658;BME280;13517;59.320;18.042;2022-08-03T00:04:10;100871.38;;;16.21;100.00
25658;BME280;13517;59.320;18.042;2022-08-03T00:06:36;100878.88;;;16.29;100.00
25658;BME280;13517;59.320;18.042;2022-08-03T00:09:03;100866.66;;;16.23;100.00
25658;BME280;13517;59.320;18.042;2022-08-03T00:11:28;100854.88;;;16.23;100.00
25658;BME280;13517;59.320;18.042;2022-08-03T00:13:53;100859.78;;;16.29;100.00
25658;BME280;13517;59.320;18.042;2022-08-03T00:16:19;100846.97;;;16.19;100.00
25658;BME280;13517;59.320;18.042;2022-08-03T00:18:44;100851.16;;;16.24;100.00
25658;BME280;13517;59.320;18.042;2022-08-03T00:21:10;100838.47;;;16.13;99.14
25658;BME280;13517;59.320;18.042;2022-08-03T00:23:35;100862.06;;;16.24;99.04
25658;BME280;13517;59.320;18.042;2022-08-03T00:26:01;100863.19;;;16.21;98.29
25658;BME280;13517;59.320;18.042;2022-08-03T00:28:26;100874.50;;;16.16;98.42
25658;BME280;13517;59.320;18.042;2022-08-03T00:30:52;100854.16;;;15.99;97.98
25658;BME280;13517;59.320;18.042;2022-08-03T00:33:17;100867.56;;;16.12;98.21
25658;BME280;13517;59.320;18.042;2022-08-03T00:35:43;100866.56;;;16.13;97.83
25658;BME280;13517;59.320;18.042;2022-08-03T00:38:08;100827.81;;;15.88;97.28
25658;BME280;13517;59.320;18.042;2022-08-03T00:40:34;100847.81;;;15.99;96.53
25658;BME280;13517;59.320;18.042;2022-08-03T00:43:01;100866.25;;;16.06;96.50
25658;BME280;13517;59.320;18.042;2022-08-03T00:45:30;100849.22;;;15.93;95.76
25658;BME280;13517;59.320;18.042;2022-08-03T00:47:56;100854.56;;;15.95;95.57
25658;BME280;13517;59.320;18.042;2022-08-03T00:50:22;100866.66;;;15.90;95.17
25658;BME280;13517;59.320;18.042;2022-08-03T00:52:49;100866.66;;;15.90;94.11
25658;BME280;13517;59.320;18.042;2022-08-03T00:55:16;100865.19;;;15.86;94.37
25658;BME280;13517;59.320;18.042;2022-08-03T00:57:42;100874.34;;;15.85;93.96
25658;BME280;13517;59.320;18.042;2022-08-03T01:00:09;100842.66;;;15.63;93.35
25658;BME280;13517;59.320;18.042;2022-08-03T01:02:36;100867.09;;;15.74;93.04
25658;BME280;13517;59.320;18.042;2022-08-03T01:05:02;100868.22;;;15.72;92.99
25658;BME280;13517;59.320;18.042;2022-08-03T01:07:50;100866.63;;;15.69;92.82
25658;BME280;13517;59.320;18.042;2022-08-03T01:10:23;100873.94;;;15.69;92.18
25658;BME280;13517;59.320;18.042;2022-08-03T01:13:08;100846.53;;;15.49;91.74
25658;BME280;13517;59.320;18.042;2022-08-03T01:18:38;100864.19;;;15.55;91.41
25658;BME280;13517;59.320;18.042;2022-08-03T01:21:12;100855.69;;;15.48;91.21
25658;BME280;13517;59.320;18.042;2022-08-03T01:24:22;100864.59;;;15.50;91.66
25658;BME280;13517;59.320;18.042;2022-08-03T01:32:01;100859.91;;;15.41;91.68
25658;BME280;13517;59.320;18.042;2022-08-03T01:34:31;100852.47;;;15.43;92.18
25658;BME280;13517;59.320;18.042;2022-08-03T01:37:00;100843.38;;;15.32;92.26
25658;BME280;13517;59.320;18.042;2022-08-03T01:39:27;100860.66;;;15.43;92.80
25658;BME280;13517;59.320;18.042;2022-08-03T01:42:03;100849.03;;;15.41;92.92
25658;BME280;13517;59.320;18.042;2022-08-03T01:44:33;100844.97;;;15.35;92.92
25658;BME280;13517;59.320;18.042;2022-08-03T01:47:01;100853.09;;;15.46;92.62
25658;BME280;13517;59.320;18.042;2022-08-03T01:49:29;100843.06;;;15.47;93.34
25658;BME280;13517;59.320;18.042;2022-08-03T01:51:56;100834.94;;;15.35;93.62
25658;BME280;13517;59.320;18.042;2022-08-03T01:54:23;100827.50;;;15.37;93.65
25658;BME280;13517;59.320;18.042;2022-08-03T01:56:51;100833.63;;;15.51;93.28
25658;BME280;13517;59.320;18.042;2022-08-03T01:59:19;100835.50;;;15.50;93.71
25658;BME280;13517;59.320;18.042;2022-08-03T02:01:47;100795.28;;;15.21;93.93
25658;BME280;13517;59.320;18.042;2022-08-03T02:04:16;100841.34;;;15.46;93.92
25658;BME280;13517;59.320;18.042;2022-08-03T02:06:44;100846.53;;;15.49;93.89
25658;BME280;13517;59.320;18.042;2022-08-03T02:09:11;100839.59;;;15.45;94.17
25658;BME280;13517;59.320;18.042;2022-08-03T02:11:37;100846.53;;;15.49;94.11
25658;BME280;13517;59.320;18.042;2022-08-03T02:14:04;100835.91;;;15.46;94.24
25658;BME280;13517;59.320;18.042;2022-08-03T02:16:32;100814.28;;;15.33;94.04
25658;BME280;13517;59.320;18.042;2022-08-03T02:18:59;100832.41;;;15.55;93.99
25658;BME280;13517;59.320;18.042;2022-08-03T02:21:28;100834.63;;;15.50;93.71
25658;BME280;13517;59.320;18.042;2022-08-03T02:23:55;100840.56;;;15.55;93.32
25658;BME280;13517;59.320;18.042;2022-08-03T02:26:22;100824.03;;;15.47;93.16
25658;BME280;13517;59.320;18.042;2022-08-03T02:28:50;100821.03;;;15.50;93.39
25658;BME280;13517;59.320;18.042;2022-08-03T02:31:19;100830.16;;;15.60;93.18
25658;BME280;13517;59.320;18.042;2022-08-03T02:33:52;100836.84;;;15.56;93.08
25658;BME280;13517;59.320;18.042;2022-08-03T02:36:20;100832.88;;;15.60;93.04
25658;BME280;13517;59.320;18.042;2022-08-03T02:38:51;100840.16;;;15.60;92.98
25658;BME280;13517;59.320;18.042;2022-08-03T02:41:22;100831.16;;;15.59;92.79
25658;BME280;13517;59.320;18.042;2022-08-03T02:43:52;100815.84;;;15.47;92.88
25658;BME280;13517;59.320;18.042;2022-08-03T02:46:19;100822.91;;;15.49;92.75
25658;BME280;13517;59.320;18.042;2022-08-03T02:48:47;100836.34;;;15.62;92.68
25658;BME280;13517;59.320;18.042;2022-08-03T02:51:13;100823.72;;;15.61;92.70
25658;BME280;13517;59.320;18.042;2022-08-03T02:53:41;100835.09;;;15.66;92.35
25658;BME280;13517;59.320;18.042;2022-08-03T02:56:08;100806.28;;;15.52;92.79
25658;BME280;13517;59.320;18.042;2022-08-03T02:58:34;100839.38;;;15.69;92.16
25658;BME280;13517;59.320;18.042;2022-08-03T03:01:01;100840.13;;;15.71;92.54
25658;BME280;13517;59.320;18.042;2022-08-03T03:03:27;100836.53;;;15.71;92.29
25658;BME280;13517;59.320;18.042;2022-08-03T03:05:54;100820.72;;;15.64;92.36
25658;BME280;13517;59.320;18.042;2022-08-03T03:08:20;100807.03;;;15.55;91.86
25658;BME280;13517;59.320;18.042;2022-08-03T03:10:46;100826.66;;;15.70;92.10
25658;BME280;13517;59.320;18.042;2022-08-03T03:13:14;100828.13;;;15.74;91.81
25658;BME280;13517;59.320;18.042;2022-08-03T03:15:40;100820.69;;;15.76;92.10
25658;BME280;13517;59.320;18.042;2022-08-03T03:18:07;100793.88;;;15.60;91.58
25658;BME280;13517;59.320;18.042;2022-08-03T03:20:35;100802.25;;;15.68;91.06
25658;BME280;13517;59.320;18.042;2022-08-03T03:23:01;100775.94;;;15.57;91.08
25658;BME280;13517;59.320;18.042;2022-08-03T03:25:29;100811.91;;;15.72;90.71
25658;BME280;13517;59.320;18.042;2022-08-03T03:27:56;100806.19;;;15.75;90.58
25658;BME280;13517;59.320;18.042;2022-08-03T03:30:21;100806.94;;;15.77;90.22
25658;BME280;13517;59.320;18.042;2022-08-03T03:32:47;100783.34;;;15.66;89.98
25658;BME280;13517;59.320;18.042;2022-08-03T03:35:13;100785.06;;;15.68;89.52
25658;BME280;13517;59.320;18.042;2022-08-03T03:37:40;100788.19;;;15.63;89.85
25658;BME280;13517;59.320;18.042;2022-08-03T03:40:06;100788.84;;;15.55;89.79
25658;BME280;13517;59.320;18.042;2022-08-03T03:42:33;100811.81;;;15.62;90.31
25658;BME280;13517;59.320;18.042;2022-08-03T03:45:02;100824.97;;;15.57;90.46
25658;BME280;13517;59.320;18.042;2022-08-03T03:47:28;100817.91;;;15.55;90.59
25658;BME280;13517;59.320;18.042;2022-08-03T03:49:53;100814.47;;;15.52;90.74
25658;BME280;13517;59.320;18.042;2022-08-03T03:52:19;100817.06;;;15.54;90.83
25658;BME280;13517;59.320;18.042;2022-08-03T03:54:44;100791.16;;;15.38;90.64
25658;BME280;13517;59.320;18.042;2022-08-03T03:57:10;100821.03;;;15.50;90.86
25658;BME280;13517;59.320;18.042;2022-08-03T03:59:40;100824.88;;;15.47;91.06
25658;BME280;13517;59.320;18.042;2022-08-03T04:02:06;100815.38;;;15.42;91.38
25658;BME280;13517;59.320;18.042;2022-08-03T04:04:33;100809.28;;;15.49;91.11
25658;BME280;13517;59.320;18.042;2022-08-03T04:07:17;100809.38;;;15.59;90.58
25658;BME280;13517;59.320;18.042;2022-08-03T04:10:04;100818.97;;;15.75;90.39
25658;BME280;13517;59.320;18.042;2022-08-03T04:12:55;100814.44;;;15.85;89.73
25658;BME280;13517;59.320;18.042;2022-08-03T04:15:24;100825.50;;;16.05;89.35
25658;BME280;13517;59.320;18.042;2022-08-03T04:17:51;100834.34;;;16.18;88.66
25658;BME280;13517;59.320;18.042;2022-08-03T04:20:19;100816.72;;;16.23;88.17
25658;BME280;13517;59.320;18.042;2022-08-03T04:22:47;100830.19;;;16.45;87.27
25658;BME280;13517;59.320;18.042;2022-08-03T04:25:15;100820.91;;;16.58;87.42
25658;BME280;13517;59.320;18.042;2022-08-03T04:27:43;100828.91;;;16.81;86.85
25658;BME280;13517;59.320;18.042;2022-08-03T04:30:10;100822.16;;;16.85;86.58
25658;BME280;13517;59.320;18.042;2022-08-03T04:32:37;100822.25;;;17.05;86.11
25658;BME280;13517;59.320;18.042;2022-08-03T04:35:03;100831.19;;;17.17;85.17
25658;BME280;13517;59.320;18.042;2022-08-03T04:37:38;100833.50;;;17.21;84.47
25658;BME280;13517;59.320;18.042;2022-08-03T04:40:10;100810.63;;;17.02;84.66
25658;BME280;13517;59.320;18.042;2022-08-03T04:42:37;100825.59;;;17.18;84.17
25658;BME280;13517;59.320;18.042;2022-08-03T04:45:05;100830.94;;;17.29;83.66
25658;BME280;13517;59.320;18.042;2022-08-03T04:47:32;100814.72;;;17.38;82.73
25658;BME280;13517;59.320;18.042;2022-08-03T04:49:59;100814.84;;;17.46;82.42
25658;BME280;13517;59.320;18.042;2022-08-03T04:52:26;100808.81;;;17.52;82.43
25658;BME280;13517;59.320;18.042;2022-08-03T04:54:51;100797.34;;;17.59;81.67
25658;BME280;13517;59.320;18.042;2022-08-03T04:57:18;100821.47;;;17.73;81.77
25658;BME280;13517;59.320;18.042;2022-08-03T04:59:43;100821.75;;;17.70;81.65
25658;BME280;13517;59.320;18.042;2022-08-03T05:02:09;100835.28;;;17.81;81.84
25658;BME280;13517;59.320;18.042;2022-08-03T05:04:34;100813.16;;;17.65;81.65
25658;BME280;13517;59.320;18.042;2022-08-03T05:06:59;100831.97;;;17.78;81.56
25658;BME280;13517;59.320;18.042;2022-08-03T05:09:25;100818.88;;;17.62;81.92
25658;BME280;13517;59.320;18.042;2022-08-03T05:11:50;100826.50;;;17.68;81.63
25658;BME280;13517;59.320;18.042;2022-08-03T05:14:15;100828.22;;;17.69;82.34
25658;BME280;13517;59.320;18.042;2022-08-03T05:16:40;100820.03;;;17.69;81.92
25658;BME280;13517;59.320;18.042;2022-08-03T05:19:06;100829.25;;;17.88;80.90
25658;BME280;13517;59.320;18.042;2022-08-03T05:21:31;100834.97;;;17.94;80.94
25658;BME280;13517;59.320;18.042;2022-08-03T05:23:56;100827.06;;;17.91;80.64
25658;BME280;13517;59.320;18.042;2022-08-03T05:26:22;100815.56;;;17.88;80.42
25658;BME280;13517;59.320;18.042;2022-08-03T05:28:47;100815.72;;;18.06;80.28
25658;BME280;13517;59.320;18.042;2022-08-03T05:31:12;100840.88;;;18.29;79.59
25658;BME280;13517;59.320;18.042;2022-08-03T05:33:38;100837.22;;;18.38;79.35
25658;BME280;13517;59.320;18.042;2022-08-03T05:36:04;100843.25;;;18.52;79.22
25658;BME280;13517;59.320;18.042;2022-08-03T05:38:30;100819.22;;;18.46;79.21
25658;BME280;13517;59.320;18.042;2022-08-03T05:40:56;100829.97;;;18.57;79.03
25658;BME280;13517;59.320;18.042;2022-08-03T05:43:22;100830.25;;;18.54;79.25
25658;BME280;13517;59.320;18.042;2022-08-03T05:45:47;100820.19;;;18.55;79.17
25658;BME280;13517;59.320;18.042;2022-08-03T05:48:12;100840.88;;;18.67;78.88
25658;BME280;13517;59.320;18.042;2022-08-03T05:50:38;100822.44;;;18.69;78.36
25658;BME280;13517;59.320;18.042;2022-08-03T05:53:03;100828.56;;;18.81;78.52
25658;BME280;13517;59.320;18.042;2022-08-03T05:55:28;100825.94;;;18.89;78.29
25658;BME280;13517;59.320;18.042;2022-08-03T05:57:54;100827.75;;;18.99;78.27
25658;BME280;13517;59.320;18.042;2022-08-03T06:00:19;100824.16;;;18.98;78.13
25658;BME280;13517;59.320;18.042;2022-08-03T06:02:45;100822.59;;;18.96;78.05
25658;BME280;13517;59.320;18.042;2022-08-03T06:05:10;100812.47;;;19.06;78.10
25658;BME280;13517;59.320;18.042;2022-08-03T06:07:35;100808.09;;;19.13;78.01
25658;BME280;13517;59.320;18.042;2022-08-03T06:10:02;100827.63;;;19.28;78.31
25658;BME280;13517;59.320;18.042;2022-08-03T06:12:28;100835.00;;;19.46;78.18
25658;BME280;13517;59.320;18.042;2022-08-03T06:14:54;100836.81;;;19.55;77.75
25658;BME280;13517;59.320;18.042;2022-08-03T06:17:19;100821.53;;;19.53;77.83
25658;BME280;13517;59.320;18.042;2022-08-03T06:19:44;100834.06;;;19.55;77.91
25658;BME280;13517;59.320;18.042;2022-08-03T06:22:10;100823.56;;;19.51;78.06
25658;BME280;13517;59.320;18.042;2022-08-03T06:24:35;100826.31;;;19.51;78.24
25658;BME280;13517;59.320;18.042;2022-08-03T06:27:00;100806.50;;;19.39;77.85
25658;BME280;13517;59.320;18.042;2022-08-03T06:29:26;100814.72;;;19.57;77.58
25658;BME280;13517;59.320;18.042;2022-08-03T06:31:51;100841.72;;;19.70;77.66
25658;BME280;13517;59.320;18.042;2022-08-03T06:34:16;100801.59;;;19.42;77.81
25658;BME280;13517;59.320;18.042;2022-08-03T06:36:41;100823.66;;;19.59;77.72
25658;BME280;13517;59.320;18.042;2022-08-03T06:39:07;100824.03;;;19.64;77.56
25658;BME280;13517;59.320;18.042;2022-08-03T06:41:32;100841.31;;;19.83;77.57
25658;BME280;13517;59.320;18.042;2022-08-03T06:43:57;100825.84;;;19.73;77.28
25658;BME280;13517;59.320;18.042;2022-08-03T06:46:23;100842.88;;;19.85;77.44
25658;BME280;13517;59.320;18.042;2022-08-03T06:48:48;100812.97;;;19.56;77.85
25658;BME280;13517;59.320;18.042;2022-08-03T06:51:14;100845.34;;;19.70;77.61
25658;BME280;13517;59.320;18.042;2022-08-03T06:53:39;100773.38;;;19.32;77.52
25658;BME280;13517;59.320;18.042;2022-08-03T06:56:06;100856.84;;;19.92;77.44
25658;BME280;13517;59.320;18.042;2022-08-03T06:58:31;100832.56;;;19.79;76.81
25658;BME280;13517;59.320;18.042;2022-08-03T07:00:58;100847.69;;;19.83;76.92
25658;BME280;13517;59.320;18.042;2022-08-03T07:03:23;100841.41;;;19.73;77.27
25658;BME280;13517;59.320;18.042;2022-08-03T07:05:48;100862.63;;;19.89;77.65
25658;BME280;13517;59.320;18.042;2022-08-03T07:08:15;100849.59;;;19.91;77.45
25658;BME280;13517;59.320;18.042;2022-08-03T07:10:40;100838.97;;;19.88;77.78
25658;BME280;13517;59.320;18.042;2022-08-03T07:13:06;100831.94;;;19.85;77.83
25658;BME280;13517;59.320;18.042;2022-08-03T07:15:31;100811.16;;;19.83;77.81
25658;BME280;13517;59.320;18.042;2022-08-03T07:17:57;100823.22;;;19.90;77.78
25658;BME280;13517;59.320;18.042;2022-08-03T07:20:22;100857.00;;;20.09;78.05
25658;BME280;13517;59.320;18.042;2022-08-03T07:22:48;100843.97;;;20.11;77.90
25658;BME280;13517;59.320;18.042;2022-08-03T07:25:13;100853.69;;;20.23;77.66
25658;BME280;13517;59.320;18.042;2022-08-03T07:27:43;100842.91;;;20.30;77.16
25658;BME280;13517;59.320;18.042;2022-08-03T07:30:08;100802.22;;;20.17;76.95
25658;BME280;13517;59.320;18.042;2022-08-03T07:32:34;100802.69;;;20.39;76.63
25658;BME280;13517;59.320;18.042;2022-08-03T07:34:59;100816.75;;;20.71;75.95
25658;BME280;13517;59.320;18.042;2022-08-03T07:37:25;100780.63;;;20.49;76.31
25658;BME280;13517;59.320;18.042;2022-08-03T07:39:50;100815.47;;;20.57;76.92
25658;BME280;13517;59.320;18.042;2022-08-03T07:42:15;100829.28;;;20.38;77.36
25658;BME280;13517;59.320;18.042;2022-08-03T07:44:41;100799.41;;;20.09;78.39
25658;BME280;13517;59.320;18.042;2022-08-03T07:47:06;100825.66;;;20.11;79.13
25658;BME280;13517;59.320;18.042;2022-08-03T07:49:31;100828.56;;;20.10;79.29
25658;BME280;13517;59.320;18.042;2022-08-03T07:51:57;100827.22;;;20.14;79.17
25658;BME280;13517;59.320;18.042;2022-08-03T07:54:40;100809.25;;;20.20;79.35
25658;BME280;13517;59.320;18.042;2022-08-03T07:57:06;100817.22;;;20.31;78.95
25658;BME280;13517;59.320;18.042;2022-08-03T07:59:31;100820.75;;;20.50;78.48
25658;BME280;13517;59.320;18.042;2022-08-03T08:01:56;100828.25;;;20.74;77.73
25658;BME280;13517;59.320;18.042;2022-08-03T08:04:22;100829.44;;;20.98;76.92
25658;BME280;13517;59.320;18.042;2022-08-03T08:06:47;100822.94;;;21.07;75.97
25658;BME280;13517;59.320;18.042;2022-08-03T08:09:13;100837.94;;;21.30;75.32
25658;BME280;13517;59.320;18.042;2022-08-03T08:11:38;100826.78;;;21.40;74.82
25658;BME280;13517;59.320;18.042;2022-08-03T08:14:04;100840.91;;;21.61;74.17
25658;BME280;13517;59.320;18.042;2022-08-03T08:16:30;100842.69;;;21.79;73.86
25658;BME280;13517;59.320;18.042;2022-08-03T08:18:55;100836.47;;;22.02;72.78
25658;BME280;13517;59.320;18.042;2022-08-03T08:21:20;100846.47;;;22.20;72.08
25658;BME280;13517;59.320;18.042;2022-08-03T08:23:45;100846.41;;;22.36;71.35
25658;BME280;13517;59.320;18.042;2022-08-03T08:26:11;100840.06;;;22.44;70.63
25658;BME280;13517;59.320;18.042;2022-08-03T08:28:37;100845.75;;;22.51;70.56
25658;BME280;13517;59.320;18.042;2022-08-03T08:31:02;100848.13;;;22.62;70.13
25658;BME280;13517;59.320;18.042;2022-08-03T08:33:28;100844.13;;;22.73;69.73
25658;BME280;13517;59.320;18.042;2022-08-03T08:35:54;100838.09;;;22.78;69.44
25658;BME280;13517;59.320;18.042;2022-08-03T08:38:20;100833.72;;;23.00;68.96
25658;BME280;13517;59.320;18.042;2022-08-03T08:40:46;100821.44;;;23.03;68.62
25658;BME280;13517;59.320;18.042;2022-08-03T08:43:12;100835.47;;;23.33;67.61
25658;BME280;13517;59.320;18.042;2022-08-03T08:45:39;100840.91;;;23.41;67.06
25658;BME280;13517;59.320;18.042;2022-08-03T08:48:06;100830.88;;;23.48;66.63
25658;BME280;13517;59.320;18.042;2022-08-03T08:50:33;100824.25;;;23.58;66.36
25658;BME280;13517;59.320;18.042;2022-08-03T08:53:01;100822.16;;;23.60;66.18
25658;BME280;13517;59.320;18.042;2022-08-03T08:55:28;100809.81;;;23.56;66.16
25658;BME280;13517;59.320;18.042;2022-08-03T08:58:01;100804.75;;;23.36;65.16
25658;BME280;13517;59.320;18.042;2022-08-03T09:00:29;100823.00;;;23.37;65.70
25658;BME280;13517;59.320;18.042;2022-08-03T09:02:55;100796.56;;;23.19;65.86
25658;BME280;13517;59.320;18.042;2022-08-03T09:05:20;100794.25;;;22.99;66.30
25658;BME280;13517;59.320;18.042;2022-08-03T09:07:47;100809.84;;;22.84;66.63
25658;BME280;13517;59.320;18.042;2022-08-03T09:10:16;100816.81;;;22.63;66.92
25658;BME280;13517;59.320;18.042;2022-08-03T09:12:48;100798.56;;;22.45;67.58
25658;BME280;13517;59.320;18.042;2022-08-03T09:17:46;100788.47;;;22.21;68.43
25658;BME280;13517;59.320;18.042;2022-08-03T09:20:12;100815.31;;;22.27;68.50
25658;BME280;13517;59.320;18.042;2022-08-03T09:23:00;100799.00;;;22.01;68.83
25658;BME280;13517;59.320;18.042;2022-08-03T09:25:37;100810.88;;;21.93;69.12
25658;BME280;13517;59.320;18.042;2022-08-03T09:28:06;100820.00;;;21.94;69.88
25658;BME280;13517;59.320;18.042;2022-08-03T09:30:32;100816.72;;;21.90;69.67
25658;BME280;13517;59.320;18.042;2022-08-03T09:33:20;100800.22;;;21.82;69.80
25658;BME280;13517;59.320;18.042;2022-08-03T09:35:46;100815.84;;;21.81;69.76
25658;BME280;13517;59.320;18.042;2022-08-03T09:38:20;100830.66;;;21.80;69.85
25658;BME280;13517;59.320;18.042;2022-08-03T09:40:53;100836.66;;;21.84;69.97
25658;BME280;13517;59.320;18.042;2022-08-03T09:43:19;100833.59;;;21.87;70.06
25658;BME280;13517;59.320;18.042;2022-08-03T09:45:44;100818.81;;;21.80;69.71
25658;BME280;13517;59.320;18.042;2022-08-03T09:48:30;100829.44;;;21.74;70.14
25658;BME280;13517;59.320;18.042;2022-08-03T09:50:59;100828.41;;;21.84;70.21
25658;BME280;13517;59.320;18.042;2022-08-03T09:53:26;100821.88;;;21.85;70.03
25658;BME280;13517;59.320;18.042;2022-08-03T09:55:55;100827.72;;;21.90;70.24
25658;BME280;13517;59.320;18.042;2022-08-03T09:58:21;100827.56;;;22.00;70.11
25658;BME280;13517;59.320;18.042;2022-08-03T10:03:20;100814.81;;;22.15;69.65
25658;BME280;13517;59.320;18.042;2022-08-03T10:05:46;100821.13;;;22.41;69.77
25658;BME280;13517;59.320;18.042;2022-08-03T10:08:14;100825.06;;;22.63;69.12
25658;BME280;13517;59.320;18.042;2022-08-03T10:10:45;100815.00;;;22.79;68.21
25658;BME280;13517;59.320;18.042;2022-08-03T10:13:16;100823.91;;;22.97;67.78
25658;BME280;13517;59.320;18.042;2022-08-03T10:15:42;100787.53;;;23.02;67.24
25658;BME280;13517;59.320;18.042;2022-08-03T10:18:07;100790.69;;;23.22;67.04
25658;BME280;13517;59.320;18.042;2022-08-03T10:20:54;100819.03;;;23.63;65.76
25658;BME280;13517;59.320;18.042;2022-08-03T10:23:23;100815.09;;;23.80;65.47
25658;BME280;13517;59.320;18.042;2022-08-03T10:25:53;100816.31;;;24.01;65.26
25658;BME280;13517;59.320;18.042;2022-08-03T10:28:22;100794.88;;;24.12;64.59
25658;BME280;13517;59.320;18.042;2022-08-03T10:30:51;100802.03;;;24.36;64.32
25658;BME280;13517;59.320;18.042;2022-08-03T10:33:23;100800.59;;;24.55;63.09
25658;BME280;13517;59.320;18.042;2022-08-03T10:35:55;100797.56;;;24.50;63.08
25658;BME280;13517;59.320;18.042;2022-08-03T10:38:46;100804.50;;;24.61;62.52
25658;BME280;13517;59.320;18.042;2022-08-03T10:41:16;100801.75;;;24.76;62.57
25658;BME280;13517;59.320;18.042;2022-08-03T10:44:02;100792.72;;;24.82;62.03
25658;BME280;13517;59.320;18.042;2022-08-03T10:46:28;100788.25;;;24.81;62.40
25658;BME280;13517;59.320;18.042;2022-08-03T10:48:54;100786.88;;;24.77;62.44
25658;BME280;13517;59.320;18.042;2022-08-03T10:51:20;100793.78;;;24.81;62.09
25658;BME280;13517;59.320;18.042;2022-08-03T10:53:47;100803.25;;;24.94;62.01
25658;BME280;13517;59.320;18.042;2022-08-03T10:59:15;100794.50;;;25.27;60.88
25658;BME280;13517;59.320;18.042;2022-08-03T11:01:52;100794.72;;;25.47;60.00
25658;BME280;13517;59.320;18.042;2022-08-03T11:04:19;100797.88;;;25.59;59.79
25658;BME280;13517;59.320;18.042;2022-08-03T11:06:45;100798.38;;;25.69;59.43
25658;BME280;13517;59.320;18.042;2022-08-03T11:11:37;100815.97;;;25.83;59.01
25658;BME280;13517;59.320;18.042;2022-08-03T11:14:08;100808.38;;;25.92;58.87
25658;BME280;13517;59.320;18.042;2022-08-03T11:16:36;100819.84;;;25.89;58.99
25658;BME280;13517;59.320;18.042;2022-08-03T11:19:05;100813.59;;;25.59;59.48
25658;BME280;13517;59.320;18.042;2022-08-03T11:30:05;100813.16;;;24.73;61.72
25658;BME280;13517;59.320;18.042;2022-08-03T11:35:26;100814.41;;;24.55;61.67
25658;BME280;13517;59.320;18.042;2022-08-03T11:46:06;100793.34;;;24.69;61.84
25658;BME280;13517;59.320;18.042;2022-08-03T11:48:33;100792.91;;;24.81;61.48
25658;BME280;13517;59.320;18.042;2022-08-03T11:50:59;100783.25;;;24.76;61.92
25658;BME280;13517;59.320;18.042;2022-08-03T11:53:26;100795.94;;;24.71;61.87
25658;BME280;13517;59.320;18.042;2022-08-03T11:55:51;100778.81;;;24.60;62.18
25658;BME280;13517;59.320;18.042;2022-08-03T11:58:20;100804.44;;;24.84;61.72
25658;BME280;13517;59.320;18.042;2022-08-03T12:00:46;100780.22;;;24.86;61.92
25658;BME280;13517;59.320;18.042;2022-08-03T12:03:14;100784.69;;;24.87;61.67
25658;BME280;13517;59.320;18.042;2022-08-03T12:05:43;100771.53;;;24.74;62.18
25658;BME280;13517;59.320;18.042;2022-08-03T12:08:10;100769.06;;;24.65;61.89
25658;BME280;13517;59.320;18.042;2022-08-03T12:10:37;100762.59;;;24.57;62.54
25658;BME280;13517;59.320;18.042;2022-08-03T12:13:04;100771.09;;;24.56;62.52
25658;BME280;13517;59.320;18.042;2022-08-03T12:15:31;100767.38;;;24.33;63.01
25658;BME280;13517;59.320;18.042;2022-08-03T12:18:00;100787.47;;;24.42;63.53
25658;BME280;13517;59.320;18.042;2022-08-03T12:20:28;100771.47;;;24.53;62.83
25658;BME280;13517;59.320;18.042;2022-08-03T12:23:00;100786.63;;;24.57;63.06
25658;BME280;13517;59.320;18.042;2022-08-03T12:25:26;100780.81;;;24.52;63.48
25658;BME280;13517;59.320;18.042;2022-08-03T12:27:52;100765.00;;;24.45;64.00
25658;BME280;13517;59.320;18.042;2022-08-03T12:30:18;100766.44;;;24.26;64.42
25658;BME280;13517;59.320;18.042;2022-08-03T12:32:45;100765.34;;;24.12;64.39
25658;BME280;13517;59.320;18.042;2022-08-03T12:35:21;100759.22;;;24.02;65.13
25658;BME280;13517;59.320;18.042;2022-08-03T12:37:47;100769.03;;;24.04;65.61
25658;BME280;13517;59.320;18.042;2022-08-03T12:40:13;100726.84;;;23.80;65.95
25658;BME280;13517;59.320;18.042;2022-08-03T12:42:40;100746.09;;;23.89;66.04
25658;BME280;13517;59.320;18.042;2022-08-03T12:47:54;100762.09;;;23.93;66.57
25658;BME280;13517;59.320;18.042;2022-08-03T12:50:30;100765.59;;;24.02;66.30
25658;BME280;13517;59.320;18.042;2022-08-03T12:52:57;100743.50;;;24.02;65.90
25658;BME280;13517;59.320;18.042;2022-08-03T12:55:23;100747.09;;;24.11;66.17
25658;BME280;13517;59.320;18.042;2022-08-03T12:57:48;100749.88;;;24.26;66.00
25658;BME280;13517;59.320;18.042;2022-08-03T13:00:15;100767.56;;;24.47;65.43
25658;BME280;13517;59.320;18.042;2022-08-03T13:02:41;100779.34;;;24.71;64.72
25658;BME280;13517;59.320;18.042;2022-08-03T13:05:12;100778.59;;;24.77;64.46
25658;BME280;13517;59.320;18.042;2022-08-03T13:07:44;100753.84;;;24.54;64.62
25658;BME280;13517;59.320;18.042;2022-08-03T13:10:11;100756.13;;;24.50;64.94
25658;BME280;13517;59.320;18.042;2022-08-03T13:12:49;100722.25;;;24.26;64.68
25658;BME280;13517;59.320;18.042;2022-08-03T13:15:14;100774.88;;;24.70;64.75
25658;BME280;13517;59.320;18.042;2022-08-03T13:17:40;100770.00;;;24.72;64.81
25658;BME280;13517;59.320;18.042;2022-08-03T13:20:06;100756.69;;;24.91;63.76
25658;BME280;13517;59.320;18.042;2022-08-03T13:22:32;100784.75;;;25.09;63.40
25658;BME280;13517;59.320;18.042;2022-08-03T13:24:58;100780.47;;;25.07;63.19